Flight Track Log - Related Links

Times and Time Zones

All times are in EDT time to prevent confusion due to time zone crossing. See the SWA2681 flight status page for this flight to view local times or setup timezone preferences in your user account.

Time Position Orientation Groundspeed Altitude Reporting Facility
EDT Latitude Longitude Course Direction KTS MPH feet Rate Location/Type
Sun 10:47:59 PM 30.1278 -97.5989 41° Northeast 220 253 6,400  Level Houston Center
Sun 10:49:00 PM 30.1961 -97.5589 27° Northeast 272 313 10,500 3,246 Climbing Houston Center
Sun 10:50:01 PM 30.2778 -97.5061 29° Northeast 324 373 13,000 3,344 Climbing Houston Center
Sun 10:51:02 PM 30.3531 -97.4231 44° Northeast 369 425 17,300 4,180 Climbing Houston Center
Sun 10:52:00 PM 30.6208 -97.2250 60° Northeast  Level FlightAware Approximate
Sun 10:52:03 PM 30.4258 -97.3469 42° Northeast 355 409 21,500  Level Houston Center
Sun 10:53:00 PM 30.6777 -97.1556 41° Northeast  Level FlightAware Approximate
Sun 10:53:04 PM 30.5028 -97.2650 43° Northeast 367 422 22,000  Level Houston Center
Sun 10:54:04 PM 30.5889 -97.1725 43° Northeast 415 478 22,000  Level Houston Center
Sun 10:55:05 PM 30.6753 -97.0806 42° Northeast 418 481 22,000  Level Houston Center
Sun 10:56:06 PM 30.7603 -96.9900 42° Northeast 416 479 22,000  Level Houston Center
Sun 10:57:07 PM 30.8444 -96.8997 43° Northeast 410 472 22,000  Level Houston Center
Sun 10:58:08 PM 30.9322 -96.8078 42° Northeast 419 482 22,000  Level Houston Center
Sun 10:59:09 PM 31.0192 -96.7144 43° Northeast 420 483 22,000  Level Houston Center
Sun 11:00:10 PM 31.1225 -96.6036 43° Northeast 428 493 22,000  Level Houston Center
Sun 11:01:11 PM 31.2086 -96.5106 43° Northeast 423 487 22,000  Level Houston Center
Sun 11:02:12 PM 31.3092 -96.4394 31° Northeast 430 495 22,000  Level Houston Center
Sun 11:03:13 PM 31.4317 -96.4311 North 434 499 22,000  Level Houston Center
Sun 11:04:13 PM 31.5542 -96.4242 North 437 503 22,000  Level Houston Center
Sun 11:05:14 PM 31.6764 -96.4169 North 435 501 22,000  Level Houston Center
Sun 11:06:15 PM 31.7986 -96.4092 North 435 501 22,000 -639 Level Houston Center
Sun 11:07:16 PM 31.9211 -96.4019 North 436 502 20,700 -2,213 Descending Houston Center
Sun 11:08:17 PM 32.0383 -96.3942 North 425 489 17,500 -3,148 Descending Houston Center
Sun 11:09:18 PM 32.1514 -96.3875 North 410 472 14,300 -3,074 Descending Houston Center
Sun 11:10:18 PM 32.2603 -96.3803 North 393 452 11,300 -1,846 Descending Houston Center
Sun 11:11:41 PM 32.3928 -96.3750 North 342 394 9,900 -965 Descending Fort Worth Center
Sun 11:12:41 PM 32.4639 -96.3867 352° North 299 344 9,000 -450 Descending Fort Worth Center
Sun 11:13:41 PM 32.5414 -96.4325 334° Northwest 280 322 9,000 -450 Level Fort Worth Center
Sun 11:14:41 PM 32.6064 -96.4714 333° Northwest 280 322 8,100 -1,250 Descending Fort Worth Center
Sun 11:15:41 PM 32.6861 -96.5222 332° Northwest 292 336 6,500 -1,500 Descending Fort Worth Center
Sun 11:16:41 PM 32.7408 -96.5761 320° Northwest 287 330 5,100 -1,500 Descending Fort Worth Center
Sun 11:17:41 PM 32.8081 -96.6422 320° Northwest 287 330 3,500 -1,050 Descending Fort Worth Center
Sun 11:18:41 PM 32.8647 -96.6961 321° Northwest 287 330 3,000 -250 Descending Fort Worth Center
Sun 11:19:41 PM 32.9172 -96.7725 309° West 282 325 3,000 -100 Level Fort Worth Center
Sun 11:20:41 PM 32.9333 -96.8333 288° West 209 241 2,800 -600 Descending Dallas / Fort Worth TRACON
Sun 11:21:41 PM 32.9000 -96.9000 239° Southwest 177 204 1,800 -900 Descending Dallas / Fort Worth TRACON
Sun 11:22:41 PM 32.8667 -96.8833 157° South 116 133 1,000 -800 Descending Dallas / Fort Worth TRACON
Sun 11:25:00 PM 32.8471 -96.8518 301° West  Level Estimated

Login

Don't have an account? Register now (free) for customized features, flight alerts, and more!